createdAt,value
2023-02-02T00:03:59.988Z,15.48
2023-02-02T00:09:03.436Z,14.18
2023-02-02T00:14:05.745Z,12.68
2023-02-02T00:19:15.566Z,11.23
2023-02-02T00:24:18.472Z,11.23
2023-02-02T00:29:23.322Z,9.38
2023-02-02T00:34:25.896Z,11.88
2023-02-02T00:39:28.216Z,11.40
2023-02-02T00:44:48.864Z,9.98
2023-02-02T00:49:51.038Z,9.10
2023-02-02T00:54:53.533Z,8.90
2023-02-02T00:59:55.888Z,8.80
2023-02-02T01:04:58.180Z,9.60
2023-02-02T01:10:00.433Z,6.78
2023-02-02T01:15:03.540Z,7.57
2023-02-02T01:20:09.276Z,8.48
2023-02-02T01:30:14.131Z,13.85
2023-02-02T01:35:16.311Z,10.45
2023-02-02T01:40:18.652Z,9.18
2023-02-02T01:45:29.519Z,7.53
2023-02-02T01:50:34.654Z,5.57
2023-02-02T01:55:40.108Z,6.22
2023-02-02T02:00:46.153Z,9.15
2023-02-02T02:06:15.638Z,11.15
2023-02-02T02:11:18.572Z,8.25
2023-02-02T02:16:44.933Z,7.13
2023-02-02T02:22:25.569Z,10.25
2023-02-02T02:33:00.091Z,6.38
2023-02-02T02:38:17.738Z,8.60
2023-02-02T02:43:55.823Z,7.93
2023-02-02T02:49:00.307Z,10.60
2023-02-02T02:54:03.283Z,6.97
2023-02-02T02:59:14.194Z,8.13
2023-02-02T03:04:38.262Z,6.80
2023-02-02T03:09:44.085Z,9.38
2023-02-02T03:14:46.245Z,6.82
2023-02-02T03:19:48.339Z,6.28
2023-02-02T03:24:50.494Z,7.68
2023-02-02T03:29:52.919Z,9.38
2023-02-02T03:34:55.007Z,10.63
2023-02-02T03:39:57.265Z,15.27
2023-02-02T03:44:59.524Z,8.75
2023-02-02T03:50:01.670Z,7.95
2023-02-02T03:55:04.146Z,15.57
2023-02-02T04:00:06.989Z,12.43
2023-02-02T04:05:14.165Z,9.82
2023-02-02T04:10:17.303Z,13.00
2023-02-02T04:15:19.470Z,11.20
2023-02-02T04:20:21.599Z,11.88
2023-02-02T04:25:24.067Z,10.38
2023-02-02T04:30:26.331Z,12.38
2023-02-02T04:35:28.523Z,17.58
2023-02-02T04:40:30.612Z,12.05
2023-02-02T04:45:33.103Z,13.57
2023-02-02T04:50:35.403Z,16.27
2023-02-02T04:55:39.099Z,11.23
2023-02-02T05:00:41.254Z,12.32
2023-02-02T05:05:43.406Z,14.73
2023-02-02T05:10:45.483Z,13.32
2023-02-02T05:15:48.450Z,15.45
2023-02-02T05:20:50.580Z,13.80
2023-02-02T05:25:54.742Z,13.32
2023-02-02T05:30:57.745Z,12.85
2023-02-02T05:36:00.018Z,17.15
2023-02-02T05:41:02.789Z,17.98
2023-02-02T05:46:05.382Z,16.48
2023-02-02T05:51:16.151Z,21.92
2023-02-02T05:56:18.398Z,22.92
2023-02-02T06:01:21.669Z,12.57
2023-02-02T06:06:24.000Z,13.50
2023-02-02T06:11:26.258Z,13.32
2023-02-02T06:16:28.471Z,15.75
2023-02-02T06:21:33.416Z,20.13
2023-02-02T06:26:35.820Z,16.20
2023-02-02T06:31:38.044Z,11.57
2023-02-02T06:36:40.411Z,16.40
2023-02-02T06:41:44.939Z,21.23
2023-02-02T06:46:47.703Z,16.52
2023-02-02T06:51:50.031Z,18.98
2023-02-02T06:56:52.181Z,18.20
2023-02-02T07:01:54.392Z,23.45
2023-02-02T07:06:56.555Z,14.43
2023-02-02T07:11:59.519Z,15.48
2023-02-02T07:17:01.899Z,17.58
2023-02-02T07:22:04.076Z,23.73
2023-02-02T07:27:06.354Z,18.40
2023-02-02T07:32:08.504Z,19.35
2023-02-02T07:37:11.069Z,25.00
2023-02-02T07:42:13.646Z,19.63
2023-02-02T07:47:17.477Z,31.33
2023-02-02T07:52:19.663Z,21.38
2023-02-02T07:57:21.868Z,20.25
2023-02-02T08:02:24.132Z,20.88
2023-02-02T08:07:26.413Z,22.27
2023-02-02T08:12:28.757Z,24.52
2023-02-02T08:17:30.950Z,22.02
2023-02-02T08:22:33.081Z,21.70
2023-02-02T08:27:36.964Z,23.02
2023-02-02T08:32:40.697Z,20.65
2023-02-02T08:37:42.908Z,18.00
2023-02-02T08:42:46.475Z,20.60
2023-02-02T08:47:52.041Z,26.77
2023-02-02T08:53:01.050Z,18.85
2023-02-02T08:58:03.225Z,26.88
2023-02-02T09:03:05.674Z,24.40
2023-02-02T09:08:07.850Z,22.85
2023-02-02T09:13:10.238Z,19.40
2023-02-02T09:18:12.385Z,19.95
2023-02-02T09:23:14.545Z,24.58
2023-02-02T09:28:16.954Z,24.35
2023-02-02T09:33:19.102Z,14.40
2023-02-02T09:38:21.231Z,25.95
2023-02-02T09:43:52.136Z,17.23
2023-02-02T09:49:09.970Z,20.98
2023-02-02T09:54:27.126Z,17.40
2023-02-02T09:59:37.656Z,23.70
2023-02-02T10:04:43.982Z,23.20
2023-02-02T10:10:02.813Z,21.65
2023-02-02T10:15:20.761Z,21.05
2023-02-02T10:20:59.331Z,18.05
2023-02-02T10:26:27.517Z,22.83
2023-02-02T10:31:43.664Z,22.55
2023-02-02T10:37:07.780Z,25.45
2023-02-02T10:42:21.695Z,22.13
2023-02-02T10:47:28.110Z,26.83
2023-02-02T10:52:33.811Z,23.10
2023-02-02T10:58:13.298Z,24.73
2023-02-02T11:03:17.858Z,25.20
2023-02-02T11:08:30.499Z,24.80
2023-02-02T11:13:38.124Z,26.77
2023-02-02T11:18:43.889Z,28.58
2023-02-02T11:23:55.941Z,22.65
2023-02-02T11:29:00.008Z,21.27
2023-02-02T11:34:28.275Z,17.75
2023-02-02T11:39:31.313Z,18.50
2023-02-02T11:44:36.026Z,18.25
2023-02-02T11:49:43.853Z,20.20
2023-02-02T11:54:58.847Z,25.17
2023-02-02T12:00:10.467Z,27.45
2023-02-02T12:05:13.552Z,30.23
2023-02-02T12:10:18.665Z,20.13
2023-02-02T12:15:30.568Z,18.55
2023-02-02T12:20:46.332Z,21.73
2023-02-02T12:26:16.118Z,24.63
2023-02-02T12:31:27.324Z,17.15
2023-02-02T12:36:40.451Z,20.80
2023-02-02T12:42:03.953Z,27.38
2023-02-02T12:47:35.927Z,24.63
2023-02-02T12:53:07.326Z,22.25
2023-02-02T12:58:24.362Z,24.10
2023-02-02T13:04:00.569Z,22.42
2023-02-02T13:09:10.189Z,26.27
2023-02-02T13:14:36.188Z,24.88
2023-02-02T13:19:49.106Z,24.75
2023-02-02T13:24:55.847Z,22.20
2023-02-02T13:30:05.757Z,21.63
2023-02-02T13:35:17.674Z,23.55
2023-02-02T13:40:32.885Z,21.52
2023-02-02T13:45:53.030Z,26.17
2023-02-02T13:51:36.394Z,29.33
2023-02-02T13:57:13.128Z,18.35
2023-02-02T14:02:52.320Z,21.73
2023-02-02T14:08:02.370Z,22.70
2023-02-02T14:13:32.131Z,30.70
2023-02-02T14:18:52.327Z,23.83
2023-02-02T14:23:55.778Z,27.55
2023-02-02T14:28:57.973Z,26.55
2023-02-02T14:34:30.539Z,20.52
2023-02-02T14:39:41.480Z,25.48
2023-02-02T14:45:08.073Z,27.00
2023-02-02T14:50:38.353Z,24.88
2023-02-02T14:56:01.036Z,19.52
2023-02-02T15:01:17.451Z,22.83
2023-02-02T15:06:43.433Z,21.77
2023-02-02T15:12:03.682Z,20.73
2023-02-02T15:17:17.723Z,20.60
2023-02-02T15:22:35.282Z,21.40
2023-02-02T15:27:51.514Z,24.05
2023-02-02T15:32:58.959Z,21.63
2023-02-02T15:38:06.230Z,24.00
2023-02-02T15:43:10.710Z,17.48
2023-02-02T15:48:31.924Z,19.48
2023-02-02T15:53:49.070Z,20.63
2023-02-02T15:58:54.025Z,23.42
2023-02-02T16:04:08.566Z,20.75
2023-02-02T16:14:22.270Z,20.15
2023-02-02T16:19:26.974Z,24.42
2023-02-02T16:24:33.375Z,28.60
2023-02-02T16:29:35.921Z,18.83
2023-02-02T16:34:41.060Z,23.95
2023-02-02T16:39:43.770Z,18.55
2023-02-02T16:44:45.874Z,23.48
2023-02-02T16:49:48.058Z,21.20
2023-02-02T16:54:53.850Z,20.42
2023-02-02T16:59:59.975Z,22.67
2023-02-02T17:05:30.272Z,20.65
2023-02-02T17:10:37.828Z,20.38
2023-02-02T17:15:39.959Z,21.55
2023-02-02T17:20:42.629Z,23.52
2023-02-02T17:25:45.380Z,17.42
2023-02-02T17:30:50.587Z,24.80
2023-02-02T17:35:56.567Z,25.73
2023-02-02T17:41:02.060Z,15.85
2023-02-02T17:46:04.449Z,25.45
2023-02-02T17:51:13.606Z,25.13
2023-02-02T17:56:15.877Z,21.67
2023-02-02T18:01:18.117Z,17.33
2023-02-02T18:06:20.303Z,22.45
2023-02-02T18:11:22.388Z,23.00
2023-02-02T18:16:24.616Z,15.32
2023-02-02T18:21:26.916Z,22.15
2023-02-02T18:26:29.127Z,19.95
2023-02-02T18:31:31.518Z,22.65
2023-02-02T18:36:34.258Z,20.80
2023-02-02T18:41:36.467Z,23.98
2023-02-02T18:46:38.635Z,17.25
2023-02-02T18:51:42.041Z,16.95
2023-02-02T18:56:44.245Z,23.13
2023-02-02T19:01:46.363Z,19.50
2023-02-02T19:07:07.203Z,18.65
2023-02-02T19:12:14.255Z,23.42
2023-02-02T19:17:28.270Z,18.33
2023-02-02T19:22:32.650Z,25.35
2023-02-02T19:27:36.439Z,22.17
2023-02-02T19:32:38.654Z,18.95
2023-02-02T19:37:43.400Z,20.88
2023-02-02T19:43:06.656Z,21.88
2023-02-02T19:48:26.587Z,18.45
2023-02-02T19:53:38.156Z,23.10
2023-02-02T19:58:40.355Z,17.70
2023-02-02T20:03:45.643Z,18.90
2023-02-02T20:08:47.972Z,17.38
2023-02-02T20:13:51.841Z,19.05
2023-02-02T20:18:57.267Z,18.05
2023-02-02T20:23:59.678Z,21.45
2023-02-02T20:29:25.359Z,17.75
2023-02-02T20:34:31.364Z,18.40
2023-02-02T20:39:42.046Z,17.88
2023-02-02T20:44:44.259Z,20.40
2023-02-02T20:49:46.904Z,20.52
2023-02-02T20:54:49.617Z,18.30
2023-02-02T20:59:57.753Z,20.02
2023-02-02T21:05:01.580Z,18.00
2023-02-02T21:10:03.913Z,19.05
2023-02-02T21:15:06.633Z,21.50
2023-02-02T21:20:10.314Z,23.23
2023-02-02T21:25:12.746Z,20.17
2023-02-02T21:30:15.314Z,16.60
2023-02-02T21:35:17.808Z,20.27
2023-02-02T21:40:25.800Z,18.05
2023-02-02T21:45:38.702Z,17.50
2023-02-02T21:50:41.870Z,19.00
2023-02-02T21:55:45.353Z,18.38
2023-02-02T22:00:49.608Z,21.92
2023-02-02T22:05:51.848Z,17.17
2023-02-02T22:10:53.953Z,13.32
2023-02-02T22:15:56.265Z,17.92
2023-02-02T22:20:59.624Z,15.18
2023-02-02T22:26:01.708Z,19.33
2023-02-02T22:31:05.235Z,20.73
2023-02-02T22:36:08.007Z,17.60
2023-02-02T22:41:10.247Z,15.30
2023-02-02T22:46:12.417Z,22.13
2023-02-02T22:51:14.574Z,18.63
2023-02-02T22:56:16.706Z,22.48
2023-02-02T23:01:18.861Z,17.83
2023-02-02T23:06:21.023Z,17.70
2023-02-02T23:11:23.219Z,21.50
2023-02-02T23:16:25.405Z,15.88
2023-02-02T23:21:27.595Z,17.58
2023-02-02T23:26:29.823Z,16.33
2023-02-02T23:31:32.095Z,15.93
2023-02-02T23:36:34.353Z,17.63
2023-02-02T23:41:36.415Z,18.13
2023-02-02T23:46:39.925Z,14.43
2023-02-02T23:51:42.197Z,21.92
2023-02-02T23:56:44.704Z,17.35
